createdAt,value
2023-04-30T00:00:10.840Z,38.93
2023-04-30T00:03:01.932Z,38.97
2023-04-30T00:05:33.108Z,39.02
2023-04-30T00:08:04.327Z,39.11
2023-04-30T00:10:35.271Z,39.00
2023-04-30T00:13:06.288Z,39.16
2023-04-30T00:15:37.160Z,39.22
2023-04-30T00:18:08.392Z,39.18
2023-04-30T00:20:39.390Z,39.26
2023-04-30T00:23:10.340Z,39.34
2023-04-30T00:25:41.274Z,39.46
2023-04-30T00:28:13.257Z,39.71
2023-04-30T00:30:44.062Z,39.90
2023-04-30T00:33:15.074Z,39.81
2023-04-30T00:35:45.794Z,39.91
2023-04-30T00:38:16.833Z,39.97
2023-04-30T00:40:47.502Z,40.01
2023-04-30T00:43:18.442Z,40.19
2023-04-30T00:45:49.206Z,40.11
2023-04-30T00:48:19.925Z,40.08
2023-04-30T00:50:50.566Z,40.23
2023-04-30T00:53:21.538Z,40.22
2023-04-30T00:55:52.259Z,40.24
2023-04-30T00:58:23.151Z,40.38
2023-04-30T01:00:53.816Z,40.35
2023-04-30T01:03:24.849Z,40.41
2023-04-30T01:05:55.842Z,40.48
2023-04-30T01:08:26.679Z,40.70
2023-04-30T01:10:59.133Z,40.74
2023-04-30T01:13:30.813Z,40.79
2023-04-30T01:16:04.028Z,40.86
2023-04-30T01:18:36.796Z,40.86
2023-04-30T01:21:07.605Z,40.89
2023-04-30T01:23:43.754Z,40.96
2023-04-30T01:26:15.234Z,40.91
2023-04-30T01:28:45.971Z,40.89
2023-04-30T01:31:17.738Z,40.85
2023-04-30T01:33:48.602Z,40.84
2023-04-30T01:36:22.817Z,40.87
2023-04-30T01:38:57.468Z,40.91
2023-04-30T01:41:31.160Z,40.89
2023-04-30T01:44:04.365Z,41.00
2023-04-30T01:46:35.888Z,41.10
2023-04-30T01:49:09.163Z,41.09
2023-04-30T01:51:41.496Z,41.10
2023-04-30T01:54:13.649Z,41.09
2023-04-30T01:56:45.565Z,41.24
2023-04-30T01:59:16.623Z,41.29
2023-04-30T02:01:47.949Z,41.45
2023-04-30T02:04:18.685Z,41.38
2023-04-30T02:06:49.554Z,41.49
2023-04-30T02:09:20.379Z,41.54
2023-04-30T02:11:51.497Z,41.61
2023-04-30T02:14:22.240Z,41.66
2023-04-30T02:16:53.004Z,41.70
2023-04-30T02:19:23.766Z,41.77
2023-04-30T02:21:54.650Z,41.81
2023-04-30T02:24:25.400Z,41.83
2023-04-30T02:26:56.168Z,41.92
2023-04-30T02:29:26.914Z,42.01
2023-04-30T02:31:59.165Z,42.01
2023-04-30T02:34:29.890Z,42.13
2023-04-30T02:37:00.924Z,42.11
2023-04-30T02:39:31.655Z,42.19
2023-04-30T02:42:02.452Z,42.36
2023-04-30T02:44:33.305Z,42.30
2023-04-30T02:47:04.090Z,42.39
2023-04-30T02:49:34.789Z,42.51
2023-04-30T02:52:06.163Z,42.64
2023-04-30T02:54:37.076Z,42.69
2023-04-30T02:57:08.130Z,42.77
2023-04-30T02:59:38.910Z,42.94
2023-04-30T03:02:09.859Z,43.01
2023-04-30T03:04:40.827Z,43.01
2023-04-30T03:07:11.596Z,43.06
2023-04-30T03:09:42.424Z,42.99
2023-04-30T03:12:14.661Z,43.01
2023-04-30T03:14:45.416Z,42.90
2023-04-30T03:17:16.716Z,43.02
2023-04-30T03:19:47.443Z,43.13
2023-04-30T03:22:19.567Z,43.20
2023-04-30T03:24:50.253Z,43.30
2023-04-30T03:27:21.078Z,43.38
2023-04-30T03:29:52.063Z,43.49
2023-04-30T03:32:23.109Z,43.53
2023-04-30T03:34:54.009Z,43.64
2023-04-30T03:37:24.807Z,43.78
2023-04-30T03:39:55.902Z,43.80
2023-04-30T03:42:26.744Z,43.97
2023-04-30T03:44:57.371Z,43.90
2023-04-30T03:47:28.221Z,44.14
2023-04-30T03:49:58.850Z,44.22
2023-04-30T03:52:29.608Z,44.38
2023-04-30T03:55:00.208Z,44.44
2023-04-30T03:57:31.099Z,44.41
2023-04-30T04:00:01.968Z,44.39
2023-04-30T04:02:34.141Z,44.21
2023-04-30T04:05:05.051Z,44.36
2023-04-30T04:07:35.946Z,44.33
2023-04-30T04:10:08.218Z,44.34
2023-04-30T04:12:39.052Z,44.42
2023-04-30T04:15:11.100Z,44.43
2023-04-30T04:17:41.840Z,44.46
2023-04-30T04:20:14.169Z,44.51
2023-04-30T04:22:45.182Z,44.52
2023-04-30T04:25:18.213Z,44.65
2023-04-30T04:27:49.248Z,44.72
2023-04-30T04:30:20.073Z,44.70
2023-04-30T04:32:54.055Z,44.82
2023-04-30T04:35:24.870Z,44.73
2023-04-30T04:37:56.494Z,44.76
2023-04-30T04:40:28.676Z,44.77
2023-04-30T04:43:00.933Z,44.75
2023-04-30T04:45:33.720Z,44.83
2023-04-30T04:48:04.592Z,44.93
2023-04-30T04:50:36.275Z,44.99
2023-04-30T04:53:07.172Z,45.08
2023-04-30T04:55:38.091Z,45.12
2023-04-30T04:58:08.786Z,45.08
2023-04-30T05:00:39.865Z,45.22
2023-04-30T05:03:10.852Z,45.26
2023-04-30T05:05:41.686Z,45.30
2023-04-30T05:08:12.490Z,45.25
2023-04-30T05:10:43.332Z,45.38
2023-04-30T05:13:14.108Z,45.42
2023-04-30T05:15:45.321Z,45.45
2023-04-30T05:18:16.376Z,45.48
2023-04-30T05:20:47.030Z,45.48
2023-04-30T05:23:17.853Z,45.70
2023-04-30T05:25:48.966Z,45.58
2023-04-30T05:28:19.734Z,45.60
2023-04-30T05:30:50.605Z,45.67
2023-04-30T05:33:21.465Z,45.67
2023-04-30T05:35:52.319Z,45.67
2023-04-30T05:38:23.202Z,45.68
2023-04-30T05:40:54.121Z,45.69
2023-04-30T05:43:25.426Z,45.68
2023-04-30T05:45:56.974Z,45.60
2023-04-30T05:48:27.888Z,45.55
2023-04-30T05:50:58.900Z,45.67
2023-04-30T05:53:29.505Z,45.49
2023-04-30T05:56:00.190Z,45.48
2023-04-30T05:58:31.238Z,45.38
2023-04-30T06:01:02.649Z,45.41
2023-04-30T06:03:33.323Z,45.32
2023-04-30T06:06:04.292Z,45.33
2023-04-30T06:08:34.951Z,45.28
2023-04-30T06:11:06.488Z,45.14
2023-04-30T06:13:37.384Z,45.02
2023-04-30T06:16:08.894Z,45.01
2023-04-30T06:18:39.775Z,44.97
2023-04-30T06:21:11.931Z,44.80
2023-04-30T06:23:44.351Z,44.71
2023-04-30T06:26:16.926Z,44.80
2023-04-30T06:28:48.876Z,44.59
2023-04-30T06:31:19.959Z,44.52
2023-04-30T06:33:51.958Z,44.39
2023-04-30T06:36:22.935Z,44.24
2023-04-30T06:38:55.025Z,44.07
2023-04-30T06:41:27.164Z,44.02
2023-04-30T06:43:58.588Z,43.97
2023-04-30T06:46:29.974Z,43.84
2023-04-30T06:49:01.998Z,43.70
2023-04-30T06:51:33.933Z,43.71
2023-04-30T06:54:05.251Z,43.23
2023-04-30T06:56:36.964Z,43.15
2023-04-30T06:59:08.926Z,42.95
2023-04-30T07:01:40.366Z,42.72
2023-04-30T07:04:12.602Z,42.45
2023-04-30T07:06:44.021Z,42.54
2023-04-30T07:09:15.757Z,42.25
2023-04-30T07:11:47.489Z,41.98
2023-04-30T07:14:18.588Z,41.81
2023-04-30T07:16:50.976Z,41.72
2023-04-30T07:19:22.061Z,41.38
2023-04-30T07:28:50.094Z,40.93
2023-04-30T07:31:21.405Z,40.57
2023-04-30T07:33:52.425Z,40.50
2023-04-30T07:36:23.191Z,40.32
2023-04-30T07:38:53.952Z,40.03
2023-04-30T07:41:25.542Z,40.19
2023-04-30T07:43:56.325Z,39.89
2023-04-30T07:46:27.240Z,39.86
2023-04-30T07:48:58.152Z,39.88
2023-04-30T07:51:29.179Z,39.61
2023-04-30T07:54:00.145Z,39.54
2023-04-30T07:56:30.955Z,39.14
2023-04-30T07:59:01.831Z,39.24
2023-04-30T08:01:32.906Z,39.19
2023-04-30T08:04:03.893Z,38.99
2023-04-30T08:06:34.715Z,38.69
2023-04-30T08:09:05.912Z,38.82
2023-04-30T08:11:36.854Z,38.80
2023-04-30T08:14:09.248Z,38.72
2023-04-30T08:16:40.237Z,38.53
2023-04-30T08:19:11.100Z,38.45
2023-04-30T08:21:42.085Z,38.26
2023-04-30T08:24:12.845Z,37.89
2023-04-30T08:26:43.700Z,37.76
2023-04-30T08:29:14.551Z,37.60
2023-04-30T08:31:45.413Z,37.77
2023-04-30T08:34:16.235Z,37.50
2023-04-30T08:36:47.058Z,37.58
2023-04-30T08:39:17.837Z,37.46
2023-04-30T08:41:48.984Z,37.40
2023-04-30T08:44:19.880Z,37.31
2023-04-30T08:46:50.780Z,37.19
2023-04-30T08:49:23.350Z,37.03
2023-04-30T08:51:55.543Z,37.14
2023-04-30T08:54:26.371Z,36.45
2023-04-30T08:56:57.269Z,36.58
2023-04-30T08:59:28.050Z,36.37
2023-04-30T09:01:59.033Z,36.25
2023-04-30T09:04:29.891Z,36.36
2023-04-30T09:07:02.912Z,36.23
2023-04-30T09:09:39.065Z,35.86
2023-04-30T09:12:19.309Z,35.80
2023-04-30T09:15:10.266Z,35.39
2023-04-30T09:17:41.342Z,35.43
2023-04-30T09:20:13.213Z,35.41
2023-04-30T09:22:44.014Z,35.15
2023-04-30T09:25:14.873Z,34.68
2023-04-30T09:27:48.416Z,34.65
2023-04-30T09:30:33.912Z,34.56
2023-04-30T09:33:05.185Z,34.30
2023-04-30T09:35:40.226Z,33.92
2023-04-30T09:38:26.554Z,33.52
2023-04-30T09:40:59.255Z,33.90
2023-04-30T09:43:31.069Z,33.87
2023-04-30T09:46:02.114Z,33.55
2023-04-30T09:48:33.049Z,33.44
2023-04-30T09:51:03.902Z,32.98
2023-04-30T09:53:34.827Z,32.94
2023-04-30T09:56:05.890Z,33.01
2023-04-30T09:58:38.304Z,33.08
2023-04-30T10:01:11.554Z,32.79
2023-04-30T10:03:43.002Z,32.45
2023-04-30T10:06:15.792Z,32.24
2023-04-30T10:08:47.603Z,31.83
2023-04-30T10:11:19.938Z,31.97
2023-04-30T10:13:53.846Z,31.76
2023-04-30T10:16:31.996Z,31.67
2023-04-30T10:19:04.699Z,31.68
2023-04-30T10:21:35.607Z,31.69
2023-04-30T10:24:06.856Z,31.47
2023-04-30T10:26:37.717Z,31.15
2023-04-30T10:29:08.626Z,31.05
2023-04-30T10:31:39.453Z,31.36
2023-04-30T10:34:12.876Z,31.24
2023-04-30T10:36:44.913Z,30.81
2023-04-30T10:39:15.831Z,30.69
2023-04-30T10:41:49.167Z,29.99
2023-04-30T10:44:24.346Z,30.12
2023-04-30T10:47:02.686Z,30.02
2023-04-30T10:49:34.318Z,29.84
2023-04-30T10:52:05.703Z,30.10
2023-04-30T10:54:43.541Z,30.18
2023-04-30T10:57:14.881Z,29.59
2023-04-30T10:59:54.289Z,29.08
2023-04-30T11:02:25.396Z,29.12
2023-04-30T11:05:17.577Z,28.93
2023-04-30T11:07:51.979Z,29.26
2023-04-30T11:10:24.322Z,29.26
2023-04-30T11:12:56.199Z,28.93
2023-04-30T11:15:28.312Z,28.83
2023-04-30T11:18:02.608Z,28.61
2023-04-30T11:20:33.554Z,27.97
2023-04-30T11:23:21.781Z,28.21
2023-04-30T11:26:01.201Z,28.10
2023-04-30T11:28:34.985Z,27.68
2023-04-30T11:31:06.113Z,27.61
2023-04-30T11:33:37.045Z,27.53
2023-04-30T11:36:10.837Z,27.27
2023-04-30T11:38:43.702Z,27.42
2023-04-30T11:41:14.997Z,27.66
2023-04-30T11:43:47.055Z,27.52
2023-04-30T11:46:18.894Z,27.12
2023-04-30T11:49:04.198Z,27.25
2023-04-30T11:51:59.044Z,26.68
2023-04-30T11:54:43.717Z,26.82
2023-04-30T11:57:15.206Z,26.70
2023-04-30T11:59:47.862Z,26.48
2023-04-30T12:02:31.466Z,26.62
2023-04-30T12:05:06.995Z,26.77
2023-04-30T12:07:38.124Z,26.60
2023-04-30T12:10:20.322Z,26.31
2023-04-30T12:12:53.348Z,25.64
2023-04-30T12:15:27.140Z,26.05
2023-04-30T12:17:59.020Z,25.98
2023-04-30T12:20:31.039Z,25.68
2023-04-30T12:23:02.126Z,25.79
2023-04-30T12:25:33.865Z,25.73
2023-04-30T12:28:04.672Z,25.40
2023-04-30T12:30:35.906Z,25.52
2023-04-30T12:33:07.712Z,25.34
2023-04-30T12:35:38.620Z,24.98
2023-04-30T12:38:11.550Z,25.22
2023-04-30T12:40:48.269Z,24.98
2023-04-30T12:43:22.620Z,24.93
2023-04-30T12:45:58.861Z,24.87
2023-04-30T12:48:29.866Z,25.12
2023-04-30T12:51:05.246Z,24.66
2023-04-30T12:53:36.538Z,24.95
2023-04-30T12:56:14.624Z,24.55
2023-04-30T12:58:47.621Z,24.93
2023-04-30T13:01:24.589Z,24.62
2023-04-30T13:04:01.518Z,24.66
2023-04-30T13:06:35.514Z,24.43
2023-04-30T13:09:07.556Z,24.23
2023-04-30T13:11:40.807Z,24.25
2023-04-30T13:14:13.220Z,24.37
2023-04-30T13:16:45.176Z,24.02
2023-04-30T13:19:18.262Z,23.78
2023-04-30T13:21:51.970Z,23.87
2023-04-30T13:24:22.838Z,24.02
2023-04-30T13:26:53.705Z,23.67
2023-04-30T13:29:30.596Z,23.94
2023-04-30T13:32:01.470Z,23.86
2023-04-30T13:34:32.254Z,23.95
2023-04-30T13:37:03.275Z,23.72
2023-04-30T13:39:34.271Z,23.33
2023-04-30T13:42:05.492Z,23.67
2023-04-30T13:44:37.495Z,23.33
2023-04-30T13:47:10.507Z,23.10
2023-04-30T13:49:41.145Z,23.27
2023-04-30T13:52:13.540Z,23.46
2023-04-30T13:54:44.511Z,23.00
2023-04-30T13:57:15.281Z,23.15
2023-04-30T13:59:46.206Z,23.09
2023-04-30T14:02:17.491Z,23.26
2023-04-30T14:05:04.653Z,22.94
2023-04-30T14:07:37.495Z,22.99
2023-04-30T14:10:09.414Z,23.21
2023-04-30T14:12:40.530Z,23.23
2023-04-30T14:15:11.945Z,23.35
2023-04-30T14:17:42.749Z,22.83
2023-04-30T14:20:14.809Z,22.99
2023-04-30T14:22:48.589Z,22.99
2023-04-30T14:25:22.909Z,23.18
2023-04-30T14:27:54.674Z,23.03
2023-04-30T14:30:26.088Z,23.14
2023-04-30T14:32:57.251Z,22.88
2023-04-30T14:35:28.113Z,23.07
2023-04-30T14:37:58.938Z,22.71
2023-04-30T14:40:29.560Z,23.02
2023-04-30T14:43:02.101Z,23.14
2023-04-30T14:45:33.054Z,23.17
2023-04-30T14:48:05.648Z,23.15
2023-04-30T14:50:36.681Z,23.05
2023-04-30T14:53:07.465Z,23.13
2023-04-30T14:55:38.088Z,23.19
2023-04-30T14:58:08.902Z,23.07
2023-04-30T15:00:39.802Z,23.03
2023-04-30T15:03:10.534Z,23.11
2023-04-30T15:05:41.304Z,23.31
2023-04-30T15:08:12.193Z,23.48
2023-04-30T15:10:45.314Z,23.76
2023-04-30T15:13:20.308Z,24.00
2023-04-30T15:15:50.962Z,24.31
2023-04-30T15:18:21.790Z,24.17
2023-04-30T15:20:52.641Z,24.62
2023-04-30T15:23:23.487Z,24.24
2023-04-30T15:25:54.127Z,24.36
2023-04-30T15:28:25.486Z,24.49
2023-04-30T15:30:56.336Z,24.49
2023-04-30T15:33:28.871Z,24.50
2023-04-30T15:35:59.584Z,24.82
2023-04-30T15:38:30.336Z,24.84
2023-04-30T15:41:03.130Z,24.91
2023-04-30T15:43:33.889Z,25.17
2023-04-30T15:46:04.924Z,25.14
2023-04-30T15:48:35.797Z,25.19
2023-04-30T15:51:06.641Z,25.29
2023-04-30T15:53:38.766Z,25.46
2023-04-30T15:56:25.764Z,25.45
2023-04-30T15:59:08.287Z,25.64
2023-04-30T16:01:40.362Z,25.75
2023-04-30T16:04:11.298Z,25.78
2023-04-30T16:06:45.581Z,25.74
2023-04-30T16:09:19.860Z,25.92
2023-04-30T16:11:50.958Z,25.86
2023-04-30T16:14:21.896Z,25.92
2023-04-30T16:16:52.902Z,25.98
2023-04-30T16:19:23.558Z,26.18
2023-04-30T16:21:54.595Z,25.92
2023-04-30T16:24:25.534Z,26.17
2023-04-30T16:26:56.383Z,26.27
2023-04-30T16:29:27.162Z,26.11
2023-04-30T16:31:58.573Z,26.20
2023-04-30T16:34:29.398Z,26.22
2023-04-30T16:37:00.080Z,26.28
2023-04-30T16:39:30.876Z,26.40
2023-04-30T16:42:02.723Z,26.61
2023-04-30T16:44:33.509Z,26.73
2023-04-30T16:47:04.432Z,26.80
2023-04-30T16:49:35.467Z,26.72
2023-04-30T16:52:06.402Z,26.76
2023-04-30T16:54:37.419Z,26.89
2023-04-30T16:57:08.098Z,26.92
2023-04-30T16:59:38.786Z,27.10
2023-04-30T17:02:10.003Z,26.93
2023-04-30T17:04:41.103Z,27.10
2023-04-30T17:07:12.801Z,27.16
2023-04-30T17:09:43.645Z,27.39
2023-04-30T17:12:14.592Z,27.28
2023-04-30T17:14:45.450Z,27.41
2023-04-30T17:17:16.229Z,27.38
2023-04-30T17:19:47.106Z,27.42
2023-04-30T17:22:20.385Z,27.51
2023-04-30T17:24:51.157Z,27.71
2023-04-30T17:27:21.842Z,27.70
2023-04-30T17:29:52.904Z,27.58
2023-04-30T17:32:23.790Z,27.58
2023-04-30T17:34:54.592Z,27.80
2023-04-30T17:37:25.337Z,28.01
2023-04-30T17:39:56.388Z,28.29
2023-04-30T17:42:27.398Z,28.40
2023-04-30T17:44:58.254Z,28.75
2023-04-30T17:47:28.903Z,28.96
2023-04-30T17:50:00.409Z,29.45
2023-04-30T17:52:31.372Z,29.71
2023-04-30T17:55:02.377Z,29.81
2023-04-30T17:57:33.745Z,30.12
2023-04-30T18:00:05.228Z,30.31
2023-04-30T18:02:36.043Z,30.27
2023-04-30T18:05:09.198Z,30.63
2023-04-30T18:07:39.922Z,30.92
2023-04-30T18:10:11.309Z,30.94
2023-04-30T18:12:44.368Z,31.13
2023-04-30T18:15:15.337Z,31.46
2023-04-30T18:17:46.135Z,31.58
2023-04-30T18:20:18.625Z,31.79
2023-04-30T18:22:49.684Z,31.91
2023-04-30T18:25:20.920Z,32.14
2023-04-30T18:27:51.698Z,32.61
2023-04-30T18:30:23.046Z,32.59
2023-04-30T18:32:54.027Z,32.83
2023-04-30T18:35:24.884Z,33.16
2023-04-30T18:37:55.873Z,33.22
2023-04-30T18:40:26.657Z,33.46
2023-04-30T18:42:57.634Z,33.61
2023-04-30T18:45:28.380Z,33.83
2023-04-30T18:48:00.207Z,33.87
2023-04-30T18:50:31.059Z,34.15
2023-04-30T18:53:01.971Z,34.31
2023-04-30T18:55:32.604Z,34.42
2023-04-30T18:58:03.346Z,34.60
2023-04-30T19:00:34.308Z,34.87
2023-04-30T19:03:05.227Z,34.83
2023-04-30T19:05:37.585Z,34.98
2023-04-30T19:08:09.162Z,35.11
2023-04-30T19:10:40.142Z,35.15
2023-04-30T19:13:11.381Z,35.31
2023-04-30T19:15:46.107Z,35.48
2023-04-30T19:18:17.880Z,35.61
2023-04-30T19:20:57.872Z,35.68
2023-04-30T19:23:30.472Z,35.79
2023-04-30T19:26:01.754Z,35.81
2023-04-30T19:28:33.113Z,36.10
2023-04-30T19:31:04.153Z,36.07
2023-04-30T19:33:39.273Z,36.14
2023-04-30T19:36:10.306Z,36.25
2023-04-30T19:38:41.443Z,36.27
2023-04-30T19:41:12.661Z,36.28
2023-04-30T19:43:43.548Z,36.39
2023-04-30T19:46:14.499Z,36.45
2023-04-30T19:48:45.296Z,36.54
2023-04-30T19:51:16.353Z,36.57
2023-04-30T19:53:47.357Z,36.48
2023-04-30T19:56:18.285Z,36.63
2023-04-30T19:58:49.125Z,36.71
2023-04-30T20:01:20.180Z,36.77
2023-04-30T20:03:51.087Z,36.78
2023-04-30T20:06:22.141Z,36.83
2023-04-30T20:08:53.017Z,36.90
2023-04-30T20:11:23.674Z,36.95
2023-04-30T20:13:55.185Z,37.13
2023-04-30T20:16:26.418Z,37.23
2023-04-30T20:18:57.157Z,37.22
2023-04-30T20:21:29.757Z,37.33
2023-04-30T20:24:01.235Z,37.29
2023-04-30T20:26:32.842Z,37.32
2023-04-30T20:29:04.810Z,37.32
2023-04-30T20:31:37.865Z,37.48
2023-04-30T20:34:09.218Z,37.42
2023-04-30T20:36:40.812Z,37.43
2023-04-30T20:39:11.963Z,37.56
2023-04-30T20:41:43.834Z,37.51
2023-04-30T20:44:15.231Z,37.61
2023-04-30T20:46:48.020Z,37.65
2023-04-30T20:49:19.637Z,37.73
2023-04-30T20:51:51.857Z,37.66
2023-04-30T20:54:23.238Z,37.70
2023-04-30T20:56:54.837Z,37.75
2023-04-30T20:59:26.141Z,37.87
2023-04-30T21:01:57.876Z,37.89
2023-04-30T21:04:29.244Z,38.05
2023-04-30T21:07:01.885Z,38.14
2023-04-30T21:09:35.711Z,38.28
2023-04-30T21:12:06.849Z,38.34
2023-04-30T21:14:38.497Z,38.31
2023-04-30T21:17:09.871Z,38.38
2023-04-30T21:19:41.276Z,38.38
2023-04-30T21:28:41.809Z,38.53
2023-04-30T21:31:12.645Z,38.47
2023-04-30T21:33:43.608Z,38.60
2023-04-30T21:36:16.587Z,38.71
2023-04-30T21:38:47.399Z,38.76
2023-04-30T21:41:18.621Z,38.79
2023-04-30T21:43:49.402Z,38.92
2023-04-30T21:46:20.360Z,38.92
2023-04-30T21:48:51.425Z,39.06
2023-04-30T21:51:22.398Z,39.01
2023-04-30T21:53:53.187Z,39.10
2023-04-30T21:56:24.047Z,39.13
2023-04-30T21:58:54.800Z,39.26
2023-04-30T22:01:27.743Z,39.41
2023-04-30T22:03:58.944Z,39.47
2023-04-30T22:06:29.839Z,39.57
2023-04-30T22:09:00.760Z,39.61
2023-04-30T22:11:31.970Z,39.67
2023-04-30T22:14:04.323Z,39.89
2023-04-30T22:16:35.214Z,40.00
2023-04-30T22:19:06.131Z,40.27
2023-04-30T22:21:37.004Z,40.33
2023-04-30T22:24:08.370Z,40.43
2023-04-30T22:26:39.132Z,40.24
2023-04-30T22:29:10.491Z,40.51
2023-04-30T22:31:41.286Z,40.62
2023-04-30T22:34:12.778Z,40.72
2023-04-30T22:36:43.447Z,40.77
2023-04-30T22:39:14.138Z,40.88
2023-04-30T22:41:46.702Z,40.89
2023-04-30T22:44:17.778Z,41.12
2023-04-30T22:46:48.955Z,41.13
2023-04-30T22:49:30.632Z,41.23
2023-04-30T22:52:02.845Z,41.51
2023-04-30T22:54:33.691Z,41.49
2023-04-30T22:57:04.621Z,41.49
2023-04-30T22:59:35.535Z,41.54
2023-04-30T23:02:06.349Z,41.75
2023-04-30T23:04:37.232Z,41.68
2023-04-30T23:07:07.966Z,41.88
2023-04-30T23:09:38.756Z,41.93
2023-04-30T23:12:09.711Z,41.91
2023-04-30T23:14:40.529Z,41.89
2023-04-30T23:17:11.426Z,41.94
2023-04-30T23:19:42.222Z,41.90
2023-04-30T23:22:13.015Z,41.90
2023-04-30T23:24:43.854Z,42.01
2023-04-30T23:27:14.695Z,42.15
2023-04-30T23:29:45.637Z,42.25
2023-04-30T23:32:16.416Z,42.33
2023-04-30T23:34:47.795Z,42.42
2023-04-30T23:37:18.579Z,42.42
2023-04-30T23:39:49.347Z,42.60
2023-04-30T23:42:20.189Z,42.57
2023-04-30T23:44:50.964Z,42.64
2023-04-30T23:47:21.840Z,42.73
2023-04-30T23:49:52.658Z,42.87
2023-04-30T23:52:23.494Z,43.05
2023-04-30T23:54:54.341Z,43.04
2023-04-30T23:57:27.736Z,43.14
2023-04-30T23:59:58.675Z,43.11
